Time;durP1;ratioP1;P1;durP2;ratioP2;P2;SDS_P1;SDS_P2;PMS_P1;PMS_P2;Temp;Humidity;BMP_temperature;BMP_pressure;BME280_temperature;BME280_humidity;BME280_pressure;Samples;Min_cycle;Max_cycle;Signal;HPM_P1;HPM_P2
2022/07/21 00:56:36;;;;;;;9.00;7.10;;;;;;;24.91;48.80;99790.66;4864723;29;20068;-96
2022/07/21 05:17:14;;;;;;;15.60;8.70;;;;;;;30.37;40.28;99822.13;5602816;23;20035;31
2022/07/21 18:49:59;;;;;;;13.70;8.05;;;;;;;30.52;43.85;99559.44;4869348;29;20112;-96
2022/07/21 18:52:24;;;;;;;11.40;7.82;;;;;;;30.44;44.91;99552.41;4804421;29;20507;-88
2022/07/21 18:54:49;;;;;;;9.43;7.93;;;;;;;30.35;45.66;99553.63;4820914;29;20125;-87
2022/07/21 18:57:15;;;;;;;11.23;7.38;;;;;;;30.21;45.87;99551.91;4805484;29;20049;-89
2022/07/21 18:59:40;;;;;;;10.35;7.07;;;;;;;30.12;46.14;99567.31;4805241;29;20030;-88
2022/07/21 19:02:06;;;;;;;9.45;7.68;;;;;;;29.93;45.44;99558.16;4806885;29;20051;-93
2022/07/21 19:04:31;;;;;;;8.93;7.95;;;;;;;29.96;45.75;99578.41;4807226;29;20034;-93
2022/07/21 19:06:57;;;;;;;11.82;7.30;;;;;;;29.88;45.32;99598.22;4807551;29;20126;-93
2022/07/21 19:09:22;;;;;;;10.77;6.90;;;;;;;29.78;44.95;99601.22;4807180;29;20034;-95
2022/07/21 19:11:48;;;;;;;11.00;6.82;;;;;;;29.71;44.85;99597.69;4807370;29;20046;-94
2022/07/21 19:14:35;;;;;;;7.60;6.85;;;;;;;29.65;44.68;99603.00;4792666;29;20042;-94
2022/07/21 19:17:46;;;;;;;10.20;6.88;;;;;;;29.50;44.15;99598.56;4739902;30;20161;-95
2022/07/21 19:21:06;;;;;;;10.48;6.95;;;;;;;29.24;44.26;99591.09;4733520;30;20037;-94
2022/07/21 19:23:32;;;;;;;8.90;6.63;;;;;;;29.29;44.45;99612.00;4709992;30;20070;-91
2022/07/21 19:25:57;;;;;;;9.63;6.25;;;;;;;29.24;44.91;99619.78;4732003;30;20053;-91
2022/07/21 19:28:23;;;;;;;9.85;6.40;;;;;;;29.19;45.37;99624.91;4732118;30;20056;-93
2022/07/21 19:30:48;;;;;;;7.75;5.75;;;;;;;29.11;45.54;99625.84;4732903;30;20084;-93
2022/07/21 19:33:13;;;;;;;8.75;6.28;;;;;;;29.07;45.68;99633.44;4718407;30;20086;-93
2022/07/21 19:35:39;;;;;;;9.45;7.07;;;;;;;29.03;45.74;99634.03;4732739;30;20079;-93
2022/07/21 19:38:04;;;;;;;10.80;6.75;;;;;;;29.02;45.81;99640.41;4718282;30;20555;-94
2022/07/21 19:40:30;;;;;;;9.25;6.13;;;;;;;28.97;46.08;99645.53;4732619;30;20470;-93
2022/07/21 19:42:57;;;;;;;9.70;6.50;;;;;;;28.94;46.03;99652.06;4733128;30;20049;-94
2022/07/21 19:45:24;;;;;;;9.10;6.03;;;;;;;28.68;46.12;99627.66;4732711;30;20059;-93
2022/07/21 19:47:49;;;;;;;8.85;5.85;;;;;;;28.79;46.74;99656.66;4732596;30;20055;-93
2022/07/21 19:50:15;;;;;;;8.15;5.93;;;;;;;28.55;47.69;99634.53;4732811;30;20040;-93
2022/07/21 19:52:41;;;;;;;10.40;6.03;;;;;;;28.66;48.55;99664.56;4732685;30;20036;-92
2022/07/21 19:55:08;;;;;;;10.82;6.18;;;;;;;28.60;48.90;99672.28;4745944;30;20044;-92
2022/07/21 19:57:34;;;;;;;8.95;6.30;;;;;;;28.53;49.45;99659.84;4750101;30;20529;-93
2022/07/21 20:00:06;;;;;;;11.23;5.78;;;;;;;28.49;50.12;99675.47;4749647;30;20044;-94
2022/07/21 20:02:32;;;;;;;9.00;5.80;;;;;;;28.30;50.63;99660.75;4750093;30;20043;-92
2022/07/21 20:04:57;;;;;;;8.13;5.97;;;;;;;28.32;50.56;99676.66;4751701;30;20044;-92
2022/07/21 20:07:22;;;;;;;6.20;5.60;;;;;;;28.24;50.94;99690.16;4782992;29;20144;-92
2022/07/21 20:09:48;;;;;;;6.05;5.45;;;;;;;28.07;51.27;99684.97;4793978;29;20571;-92
2022/07/21 20:12:13;;;;;;;8.82;5.95;;;;;;;28.06;51.38;99685.13;4791397;29;20049;-92
2022/07/21 20:14:39;;;;;;;9.00;6.30;;;;;;;27.99;51.63;99682.38;4806934;29;20342;-91
2022/07/21 20:17:05;;;;;;;7.10;5.63;;;;;;;27.87;52.06;99683.00;4819774;29;20070;-91
2022/07/21 20:19:30;;;;;;;8.18;5.90;;;;;;;27.81;51.73;99685.41;4840651;29;20085;-90
2022/07/21 20:21:56;;;;;;;7.43;5.50;;;;;;;27.76;51.76;99686.94;4846640;29;20053;-90
2022/07/21 20:24:25;;;;;;;6.43;5.50;;;;;;;27.73;51.99;99685.47;4848586;29;20029;-91
2022/07/21 20:26:50;;;;;;;8.50;5.70;;;;;;;27.65;51.97;99677.50;4849895;29;20077;-90
2022/07/21 20:29:17;;;;;;;7.65;5.47;;;;;;;27.56;52.28;99681.25;4849813;29;20085;-90
2022/07/21 20:31:43;;;;;;;9.15;5.40;;;;;;;27.56;52.16;99683.94;4847109;29;20041;-91
2022/07/21 20:34:08;;;;;;;14.23;5.95;;;;;;;27.52;52.45;99682.63;4845822;29;20034;-91
2022/07/21 20:36:34;;;;;;;7.22;5.20;;;;;;;27.35;52.39;99679.25;4861588;29;20031;-91
2022/07/21 20:39:00;;;;;;;6.63;5.75;;;;;;;27.29;52.60;99685.28;4846755;29;20177;-91
2022/07/21 20:41:26;;;;;;;7.25;5.53;;;;;;;27.23;53.05;99681.50;4823046;29;20046;-92
2022/07/21 20:43:51;;;;;;;10.13;5.47;;;;;;;27.17;52.94;99673.34;4809330;29;20045;-92
2022/07/21 20:46:17;;;;;;;7.20;5.22;;;;;;;27.11;53.06;99666.88;4809033;29;20047;-92
2022/07/21 20:48:43;;;;;;;10.23;5.47;;;;;;;27.10;53.05;99678.59;4808392;29;20033;-93
2022/07/21 20:51:10;;;;;;;5.55;5.05;;;;;;;27.10;53.58;99676.75;4808962;29;20546;-91
2022/07/21 20:53:35;;;;;;;7.22;5.60;;;;;;;27.04;53.42;99689.94;4808812;29;20125;-93
2022/07/21 20:56:01;;;;;;;7.53;5.30;;;;;;;26.97;53.81;99679.13;4808858;29;20134;-93
2022/07/21 20:58:27;;;;;;;6.20;5.03;;;;;;;26.95;53.50;99688.34;4809128;29;20194;-91
2022/07/21 21:00:52;;;;;;;7.13;5.20;;;;;;;26.92;54.29;99699.38;4808416;29;20073;-92
2022/07/21 21:03:17;;;;;;;7.00;5.40;;;;;;;26.87;54.32;99697.22;4808817;29;20038;-92
2022/07/21 21:05:45;;;;;;;9.23;5.40;;;;;;;26.81;54.03;99689.91;4808908;29;20034;-92
2022/07/21 21:08:10;;;;;;;6.50;5.40;;;;;;;26.73;54.32;99684.63;4808797;29;20057;-92
2022/07/21 21:10:36;;;;;;;5.40;4.85;;;;;;;26.71;54.49;99686.63;4808778;29;20042;-92
2022/07/21 21:13:01;;;;;;;5.90;5.00;;;;;;;26.69;54.66;99688.66;4836692;29;20041;-92
2022/07/21 21:15:27;;;;;;;5.88;5.13;;;;;;;26.64;54.91;99693.69;4846150;29;20386;-92
2022/07/21 21:17:52;;;;;;;7.50;5.32;;;;;;;26.57;55.23;99691.69;4862553;29;20429;-91
2022/07/21 21:20:18;;;;;;;8.20;5.00;;;;;;;26.55;55.06;99701.72;4846348;29;20382;-93
2022/07/21 21:22:43;;;;;;;6.25;5.25;;;;;;;26.50;55.28;99695.22;4845797;29;20672;-92
2022/07/21 21:25:09;;;;;;;7.43;5.35;;;;;;;26.45;55.13;99687.72;4845895;29;20049;-92
2022/07/21 21:27:34;;;;;;;7.25;5.55;;;;;;;26.42;55.31;99682.72;4845680;29;20041;-93
2022/07/21 21:29:59;;;;;;;9.38;5.40;;;;;;;26.32;55.98;99674.91;4845852;29;20058;-92
2022/07/21 21:32:25;;;;;;;6.43;5.60;;;;;;;26.32;55.87;99666.88;4876472;29;20056;-92
2022/07/21 21:34:50;;;;;;;9.32;4.90;;;;;;;26.33;56.26;99686.41;4845477;29;20056;-92
2022/07/21 21:37:16;;;;;;;5.57;5.07;;;;;;;26.30;56.37;99689.44;4845166;29;20138;-91
2022/07/21 21:39:41;;;;;;;5.93;5.32;;;;;;;26.25;56.59;99692.63;4822870;29;20042;-91
2022/07/21 21:42:06;;;;;;;5.90;5.07;;;;;;;26.24;56.80;99692.78;4807695;29;20050;-91
2022/07/21 21:44:32;;;;;;;8.45;5.75;;;;;;;26.19;57.06;99693.28;4808006;29;20042;-92
2022/07/21 21:46:57;;;;;;;6.63;5.28;;;;;;;26.16;56.97;99690.97;4807702;29;20491;-91
2022/07/21 21:49:23;;;;;;;6.63;5.40;;;;;;;26.09;56.97;99679.31;4807752;29;20098;-91
2022/07/21 21:51:48;;;;;;;8.52;5.22;;;;;;;26.12;57.02;99690.50;4807716;29;20079;-92
2022/07/21 21:54:14;;;;;;;5.97;5.32;;;;;;;26.13;57.58;99683.31;4807494;29;20407;-92
2022/07/21 21:56:40;;;;;;;7.78;5.97;;;;;;;26.06;57.33;99676.97;4807252;29;20097;-92
2022/07/21 21:59:06;;;;;;;7.65;5.40;;;;;;;26.07;57.81;99681.31;4807452;29;20406;-91
2022/07/21 22:01:31;;;;;;;9.13;5.78;;;;;;;26.00;57.59;99678.50;4807512;29;20125;-91
2022/07/21 22:03:57;;;;;;;7.22;5.20;;;;;;;26.04;57.81;99697.66;4822296;29;20095;-91
2022/07/21 22:06:22;;;;;;;7.72;5.15;;;;;;;26.06;58.06;99707.16;4807231;29;20473;-90
2022/07/21 22:08:47;;;;;;;7.00;5.75;;;;;;;25.97;58.09;99696.69;4807394;29;20467;-91
2022/07/21 22:11:13;;;;;;;5.85;5.25;;;;;;;25.97;58.22;99702.03;4834677;29;20049;-92
2022/07/21 22:13:38;;;;;;;8.55;6.18;;;;;;;26.00;58.44;99713.19;4844830;29;20036;-92
2022/07/21 22:16:04;;;;;;;6.93;5.40;;;;;;;25.95;58.67;99706.69;4844822;29;20030;-92
2022/07/21 22:18:29;;;;;;;6.22;5.50;;;;;;;25.96;58.44;99714.53;4844805;29;20033;-91
2022/07/21 22:20:55;;;;;;;6.93;5.65;;;;;;;25.93;58.93;99711.38;4844847;29;20486;-92
2022/07/21 22:23:20;;;;;;;9.25;5.70;;;;;;;25.91;59.29;99713.34;4844813;29;20033;-91
2022/07/21 22:25:46;;;;;;;7.30;5.78;;;;;;;25.88;59.12;99715.38;4844598;29;20037;-92
2022/07/21 22:28:11;;;;;;;8.82;5.10;;;;;;;25.86;59.25;99717.38;4844399;29;20040;-91
2022/07/21 22:30:36;;;;;;;6.10;5.50;;;;;;;25.83;59.16;99716.88;4844390;29;20541;-91
2022/07/21 22:33:02;;;;;;;6.82;5.78;;;;;;;25.76;59.27;99707.84;4860183;29;20033;-91
2022/07/21 22:35:27;;;;;;;8.95;5.53;;;;;;;25.79;58.92;99719.06;4844794;29;20494;-91
2022/07/21 22:37:53;;;;;;;7.13;5.95;;;;;;;25.69;58.79;99712.19;4844075;29;20109;-91
2022/07/21 22:40:18;;;;;;;7.00;5.40;;;;;;;25.74;59.45;99723.19;4844681;29;20065;-92
2022/07/21 22:42:44;;;;;;;7.47;5.95;;;;;;;25.70;59.68;99724.50;4844367;29;20033;-92
2022/07/21 22:45:09;;;;;;;6.30;5.70;;;;;;;25.63;59.83;99724.38;4861226;29;20037;-92
2022/07/21 22:47:35;;;;;;;7.68;5.38;;;;;;;25.62;59.85;99720.88;4844493;29;20037;-91
2022/07/21 22:50:01;;;;;;;6.68;5.97;;;;;;;25.55;60.11;99719.03;4844261;29;20029;-92
2022/07/21 22:52:26;;;;;;;8.15;5.55;;;;;;;25.51;60.22;99721.19;4844351;29;20048;-92
2022/07/21 22:54:52;;;;;;;7.57;5.93;;;;;;;25.49;60.49;99725.00;4843992;29;20034;-92
2022/07/21 22:57:18;;;;;;;6.18;5.57;;;;;;;25.46;61.02;99723.53;4844315;29;20038;-91
2022/07/21 22:59:44;;;;;;;7.47;6.55;;;;;;;25.43;60.57;99723.84;4843966;29;20090;-92
2022/07/21 23:02:09;;;;;;;7.93;5.93;;;;;;;25.37;60.75;99722.69;4844001;29;20038;-92
2022/07/21 23:04:35;;;;;;;5.97;5.43;;;;;;;25.25;60.84;99710.66;4844234;29;20040;-91
2022/07/21 23:07:01;;;;;;;6.20;5.57;;;;;;;25.26;61.29;99717.66;4843973;29;20033;-91
2022/07/21 23:09:27;;;;;;;8.75;5.55;;;;;;;25.27;61.16;99715.81;4859395;29;20029;-91
2022/07/21 23:11:53;;;;;;;7.47;6.03;;;;;;;25.24;61.40;99719.66;4843446;29;20037;-91
2022/07/21 23:14:18;;;;;;;8.45;6.22;;;;;;;25.22;61.63;99718.97;4843710;29;20033;-90
2022/07/21 23:16:43;;;;;;;7.13;6.43;;;;;;;25.23;61.66;99715.31;4843637;29;20094;-91
2022/07/21 23:19:09;;;;;;;9.85;6.10;;;;;;;25.17;61.97;99715.97;4843712;29;20086;-91
2022/07/21 23:21:34;;;;;;;7.22;5.88;;;;;;;25.19;61.80;99715.81;4843970;29;20089;-91
2022/07/21 23:24:00;;;;;;;7.15;5.88;;;;;;;25.17;61.74;99718.66;4858992;29;20029;-90
2022/07/21 23:26:25;;;;;;;6.53;5.80;;;;;;;25.15;61.89;99717.97;4857899;29;20049;-91
2022/07/21 23:28:51;;;;;;;6.50;5.70;;;;;;;25.14;61.90;99721.63;4857827;29;20120;-92
2022/07/21 23:31:16;;;;;;;9.35;6.75;;;;;;;25.13;62.07;99725.31;4873887;29;20126;-91
2022/07/21 23:33:42;;;;;;;7.50;6.10;;;;;;;25.02;61.94;99718.41;4842650;29;20128;-91
2022/07/21 23:36:07;;;;;;;8.13;6.05;;;;;;;25.01;62.23;99716.75;4843122;29;20046;-92
2022/07/21 23:38:33;;;;;;;8.70;6.65;;;;;;;24.98;62.06;99721.56;4842849;29;20053;-92
2022/07/21 23:40:58;;;;;;;8.82;6.45;;;;;;;25.00;61.96;99717.75;4842965;29;20046;-92
2022/07/21 23:43:23;;;;;;;8.80;7.20;;;;;;;24.96;62.67;99719.06;4828324;29;20475;-92
2022/07/21 23:45:49;;;;;;;7.47;6.03;;;;;;;24.84;62.61;99707.88;4843397;29;20045;-91
2022/07/21 23:48:14;;;;;;;6.78;5.88;;;;;;;24.91;62.63;99725.88;4828006;29;20034;-92
2022/07/21 23:50:39;;;;;;;9.32;6.15;;;;;;;24.84;62.88;99723.03;4843528;29;20117;-92
2022/07/21 23:53:05;;;;;;;7.30;6.13;;;;;;;24.84;63.07;99723.84;4843268;29;20627;-92
2022/07/21 23:55:30;;;;;;;8.23;6.18;;;;;;;24.79;62.77;99718.19;4827940;29;20538;-91
2022/07/21 23:57:55;;;;;;;7.50;6.45;;;;;;;24.71;63.26;99712.81;4829735;29;20088;-91
